sensor_id;sensor_type;location;lat;lon;timestamp;P1;durP1;ratioP1;P2;durP2;ratioP2
45644;SDS011;31359;48.784;9.192;2022-07-05T00:03:56;3.78;;;2.40;;
45644;SDS011;31359;48.784;9.192;2022-07-05T00:08:57;4.45;;;2.42;;
45644;SDS011;31359;48.784;9.192;2022-07-05T00:13:59;3.20;;;2.55;;
45644;SDS011;31359;48.784;9.192;2022-07-05T00:19:01;3.28;;;2.30;;
45644;SDS011;31359;48.784;9.192;2022-07-05T00:24:03;4.10;;;2.22;;
45644;SDS011;31359;48.784;9.192;2022-07-05T00:29:05;2.97;;;2.25;;
45644;SDS011;31359;48.784;9.192;2022-07-05T00:34:06;3.25;;;2.50;;
45644;SDS011;31359;48.784;9.192;2022-07-05T00:39:08;3.50;;;2.03;;
45644;SDS011;31359;48.784;9.192;2022-07-05T00:44:11;2.63;;;2.20;;
45644;SDS011;31359;48.784;9.192;2022-07-05T00:49:15;3.47;;;2.10;;
45644;SDS011;31359;48.784;9.192;2022-07-05T00:54:17;2.70;;;2.05;;
45644;SDS011;31359;48.784;9.192;2022-07-05T00:59:19;3.70;;;2.53;;
45644;SDS011;31359;48.784;9.192;2022-07-05T01:04:21;3.72;;;2.20;;
45644;SDS011;31359;48.784;9.192;2022-07-05T01:09:23;3.20;;;2.00;;
45644;SDS011;31359;48.784;9.192;2022-07-05T01:14:25;3.25;;;2.10;;
45644;SDS011;31359;48.784;9.192;2022-07-05T01:19:27;2.70;;;2.17;;
45644;SDS011;31359;48.784;9.192;2022-07-05T01:24:28;2.90;;;2.20;;
45644;SDS011;31359;48.784;9.192;2022-07-05T01:29:31;3.65;;;2.25;;
45644;SDS011;31359;48.784;9.192;2022-07-05T01:34:36;4.10;;;2.20;;
45644;SDS011;31359;48.784;9.192;2022-07-05T01:39:39;4.00;;;2.30;;
45644;SDS011;31359;48.784;9.192;2022-07-05T01:44:40;3.85;;;2.03;;
45644;SDS011;31359;48.784;9.192;2022-07-05T01:49:43;5.13;;;2.08;;
45644;SDS011;31359;48.784;9.192;2022-07-05T01:54:49;3.65;;;2.10;;
45644;SDS011;31359;48.784;9.192;2022-07-05T01:59:51;2.42;;;2.22;;
45644;SDS011;31359;48.784;9.192;2022-07-05T02:04:53;4.53;;;2.30;;
45644;SDS011;31359;48.784;9.192;2022-07-05T02:09:55;2.95;;;2.25;;
45644;SDS011;31359;48.784;9.192;2022-07-05T02:14:56;3.53;;;2.22;;
45644;SDS011;31359;48.784;9.192;2022-07-05T02:19:58;3.33;;;2.10;;
45644;SDS011;31359;48.784;9.192;2022-07-05T02:25:01;2.25;;;2.05;;
45644;SDS011;31359;48.784;9.192;2022-07-05T02:30:03;2.63;;;1.83;;
45644;SDS011;31359;48.784;9.192;2022-07-05T02:35:05;3.78;;;2.33;;
45644;SDS011;31359;48.784;9.192;2022-07-05T02:40:09;2.13;;;1.90;;
45644;SDS011;31359;48.784;9.192;2022-07-05T02:45:12;3.85;;;2.30;;
45644;SDS011;31359;48.784;9.192;2022-07-05T02:50:14;2.63;;;2.00;;
45644;SDS011;31359;48.784;9.192;2022-07-05T02:55:16;3.00;;;2.40;;
45644;SDS011;31359;48.784;9.192;2022-07-05T03:00:18;2.67;;;2.17;;
45644;SDS011;31359;48.784;9.192;2022-07-05T03:05:20;2.55;;;2.20;;
45644;SDS011;31359;48.784;9.192;2022-07-05T03:10:22;2.85;;;2.20;;
45644;SDS011;31359;48.784;9.192;2022-07-05T03:15:24;3.15;;;2.33;;
45644;SDS011;31359;48.784;9.192;2022-07-05T03:20:26;2.63;;;2.00;;
45644;SDS011;31359;48.784;9.192;2022-07-05T03:25:27;2.45;;;2.08;;
45644;SDS011;31359;48.784;9.192;2022-07-05T03:30:29;2.47;;;2.25;;
45644;SDS011;31359;48.784;9.192;2022-07-05T03:35:31;2.78;;;2.30;;
45644;SDS011;31359;48.784;9.192;2022-07-05T03:40:33;3.92;;;2.00;;
45644;SDS011;31359;48.784;9.192;2022-07-05T03:45:35;2.85;;;2.08;;
45644;SDS011;31359;48.784;9.192;2022-07-05T03:50:37;2.35;;;1.85;;
45644;SDS011;31359;48.784;9.192;2022-07-05T03:55:39;2.20;;;2.00;;
45644;SDS011;31359;48.784;9.192;2022-07-05T04:00:41;3.45;;;2.20;;
45644;SDS011;31359;48.784;9.192;2022-07-05T04:05:43;2.42;;;2.13;;
45644;SDS011;31359;48.784;9.192;2022-07-05T04:10:45;3.88;;;2.10;;
45644;SDS011;31359;48.784;9.192;2022-07-05T04:15:47;2.65;;;2.00;;
45644;SDS011;31359;48.784;9.192;2022-07-05T04:20:48;2.60;;;2.00;;
45644;SDS011;31359;48.784;9.192;2022-07-05T04:25:50;2.22;;;1.75;;
45644;SDS011;31359;48.784;9.192;2022-07-05T04:30:52;2.72;;;2.13;;
45644;SDS011;31359;48.784;9.192;2022-07-05T04:35:54;2.20;;;1.90;;
45644;SDS011;31359;48.784;9.192;2022-07-05T04:40:56;3.13;;;2.00;;
45644;SDS011;31359;48.784;9.192;2022-07-05T04:45:57;2.47;;;1.88;;
45644;SDS011;31359;48.784;9.192;2022-07-05T04:50:59;3.30;;;2.10;;
45644;SDS011;31359;48.784;9.192;2022-07-05T04:56:01;2.45;;;1.92;;
45644;SDS011;31359;48.784;9.192;2022-07-05T05:01:03;2.55;;;1.90;;
45644;SDS011;31359;48.784;9.192;2022-07-05T05:06:05;3.20;;;2.13;;
45644;SDS011;31359;48.784;9.192;2022-07-05T05:11:07;3.38;;;2.00;;
45644;SDS011;31359;48.784;9.192;2022-07-05T05:16:09;3.10;;;2.20;;
45644;SDS011;31359;48.784;9.192;2022-07-05T05:21:11;43.85;;;10.75;;
45644;SDS011;31359;48.784;9.192;2022-07-05T05:26:13;30.85;;;8.77;;
45644;SDS011;31359;48.784;9.192;2022-07-05T05:31:15;34.67;;;7.03;;
45644;SDS011;31359;48.784;9.192;2022-07-05T05:36:18;19.45;;;5.28;;
45644;SDS011;31359;48.784;9.192;2022-07-05T05:41:20;19.45;;;5.05;;
45644;SDS011;31359;48.784;9.192;2022-07-05T05:46:22;18.30;;;4.93;;
45644;SDS011;31359;48.784;9.192;2022-07-05T05:51:24;21.40;;;4.70;;
45644;SDS011;31359;48.784;9.192;2022-07-05T05:56:26;17.35;;;6.25;;
45644;SDS011;31359;48.784;9.192;2022-07-05T06:01:28;18.92;;;6.47;;
45644;SDS011;31359;48.784;9.192;2022-07-05T06:06:30;13.23;;;5.20;;
45644;SDS011;31359;48.784;9.192;2022-07-05T06:11:31;11.93;;;4.85;;
45644;SDS011;31359;48.784;9.192;2022-07-05T06:16:33;9.73;;;3.97;;
45644;SDS011;31359;48.784;9.192;2022-07-05T06:21:35;12.10;;;3.92;;
45644;SDS011;31359;48.784;9.192;2022-07-05T06:26:37;12.60;;;4.18;;
45644;SDS011;31359;48.784;9.192;2022-07-05T06:31:38;7.75;;;3.22;;
45644;SDS011;31359;48.784;9.192;2022-07-05T06:36:40;10.40;;;3.78;;
45644;SDS011;31359;48.784;9.192;2022-07-05T06:41:42;8.80;;;3.22;;
45644;SDS011;31359;48.784;9.192;2022-07-05T06:46:44;9.80;;;3.28;;
45644;SDS011;31359;48.784;9.192;2022-07-05T06:51:45;6.95;;;3.50;;
45644;SDS011;31359;48.784;9.192;2022-07-05T06:56:47;8.02;;;3.17;;
45644;SDS011;31359;48.784;9.192;2022-07-05T07:02:09;10.32;;;3.28;;
45644;SDS011;31359;48.784;9.192;2022-07-05T07:07:26;8.23;;;3.42;;
45644;SDS011;31359;48.784;9.192;2022-07-05T07:12:47;8.00;;;3.45;;
45644;SDS011;31359;48.784;9.192;2022-07-05T07:17:49;14.70;;;3.50;;
45644;SDS011;31359;48.784;9.192;2022-07-05T07:22:50;6.47;;;2.90;;
45644;SDS011;31359;48.784;9.192;2022-07-05T07:27:54;5.57;;;2.92;;
45644;SDS011;31359;48.784;9.192;2022-07-05T07:32:56;8.63;;;2.90;;
45644;SDS011;31359;48.784;9.192;2022-07-05T07:37:58;7.75;;;3.17;;
45644;SDS011;31359;48.784;9.192;2022-07-05T07:43:00;7.10;;;3.05;;
45644;SDS011;31359;48.784;9.192;2022-07-05T07:48:02;7.57;;;2.88;;
45644;SDS011;31359;48.784;9.192;2022-07-05T07:53:04;5.25;;;2.80;;
45644;SDS011;31359;48.784;9.192;2022-07-05T07:58:05;7.03;;;2.83;;
45644;SDS011;31359;48.784;9.192;2022-07-05T08:03:08;6.25;;;2.88;;
45644;SDS011;31359;48.784;9.192;2022-07-05T08:08:10;3.78;;;2.20;;
45644;SDS011;31359;48.784;9.192;2022-07-05T08:13:11;4.15;;;2.60;;
45644;SDS011;31359;48.784;9.192;2022-07-05T08:18:13;4.95;;;2.55;;
45644;SDS011;31359;48.784;9.192;2022-07-05T08:23:34;6.00;;;2.40;;
45644;SDS011;31359;48.784;9.192;2022-07-05T08:28:36;6.75;;;2.80;;
45644;SDS011;31359;48.784;9.192;2022-07-05T08:33:58;4.57;;;2.22;;
45644;SDS011;31359;48.784;9.192;2022-07-05T08:39:00;6.47;;;3.00;;
45644;SDS011;31359;48.784;9.192;2022-07-05T08:44:02;7.63;;;2.55;;
45644;SDS011;31359;48.784;9.192;2022-07-05T08:49:05;6.15;;;2.72;;
45644;SDS011;31359;48.784;9.192;2022-07-05T08:54:12;5.00;;;2.28;;
45644;SDS011;31359;48.784;9.192;2022-07-05T08:59:14;7.72;;;2.50;;
45644;SDS011;31359;48.784;9.192;2022-07-05T09:04:16;5.05;;;2.45;;
45644;SDS011;31359;48.784;9.192;2022-07-05T09:09:20;7.22;;;2.67;;
45644;SDS011;31359;48.784;9.192;2022-07-05T09:14:23;5.00;;;2.35;;
45644;SDS011;31359;48.784;9.192;2022-07-05T09:19:29;6.00;;;2.30;;
45644;SDS011;31359;48.784;9.192;2022-07-05T09:24:33;3.45;;;1.92;;
45644;SDS011;31359;48.784;9.192;2022-07-05T09:29:54;5.03;;;2.50;;
45644;SDS011;31359;48.784;9.192;2022-07-05T09:35:19;6.05;;;2.58;;
45644;SDS011;31359;48.784;9.192;2022-07-05T09:40:21;5.18;;;2.10;;
45644;SDS011;31359;48.784;9.192;2022-07-05T09:45:23;5.30;;;2.20;;
45644;SDS011;31359;48.784;9.192;2022-07-05T09:50:35;3.05;;;2.05;;
45644;SDS011;31359;48.784;9.192;2022-07-05T09:56:01;5.88;;;2.20;;
45644;SDS011;31359;48.784;9.192;2022-07-05T10:01:22;7.35;;;2.00;;
45644;SDS011;31359;48.784;9.192;2022-07-05T10:06:27;5.65;;;2.15;;
45644;SDS011;31359;48.784;9.192;2022-07-05T10:11:30;5.70;;;2.53;;
45644;SDS011;31359;48.784;9.192;2022-07-05T10:16:32;3.97;;;1.95;;
45644;SDS011;31359;48.784;9.192;2022-07-05T10:21:34;3.58;;;1.80;;
45644;SDS011;31359;48.784;9.192;2022-07-05T10:26:56;3.80;;;2.03;;
45644;SDS011;31359;48.784;9.192;2022-07-05T10:31:58;4.53;;;2.08;;
45644;SDS011;31359;48.784;9.192;2022-07-05T10:37:02;3.42;;;2.10;;
45644;SDS011;31359;48.784;9.192;2022-07-05T10:42:05;3.58;;;1.88;;
45644;SDS011;31359;48.784;9.192;2022-07-05T10:52:21;2.97;;;1.98;;
45644;SDS011;31359;48.784;9.192;2022-07-05T10:57:24;5.10;;;2.20;;
45644;SDS011;31359;48.784;9.192;2022-07-05T11:02:27;4.05;;;2.05;;
45644;SDS011;31359;48.784;9.192;2022-07-05T11:13:03;4.20;;;2.08;;
45644;SDS011;31359;48.784;9.192;2022-07-05T11:18:37;4.50;;;1.90;;
45644;SDS011;31359;48.784;9.192;2022-07-05T11:23:39;5.60;;;1.90;;
45644;SDS011;31359;48.784;9.192;2022-07-05T11:28:45;9.27;;;2.05;;
45644;SDS011;31359;48.784;9.192;2022-07-05T11:33:48;6.10;;;1.77;;
45644;SDS011;31359;48.784;9.192;2022-07-05T11:44:15;5.72;;;2.30;;
45644;SDS011;31359;48.784;9.192;2022-07-05T11:49:19;24.92;;;3.15;;
45644;SDS011;31359;48.784;9.192;2022-07-05T11:54:22;11.65;;;2.60;;
45644;SDS011;31359;48.784;9.192;2022-07-05T11:59:29;12.13;;;1.85;;
45644;SDS011;31359;48.784;9.192;2022-07-05T12:04:31;5.25;;;1.80;;
45644;SDS011;31359;48.784;9.192;2022-07-05T12:09:33;6.07;;;2.15;;
45644;SDS011;31359;48.784;9.192;2022-07-05T12:14:54;8.98;;;2.08;;
45644;SDS011;31359;48.784;9.192;2022-07-05T12:19:56;3.67;;;1.92;;
45644;SDS011;31359;48.784;9.192;2022-07-05T12:24:58;5.53;;;2.00;;
45644;SDS011;31359;48.784;9.192;2022-07-05T12:30:02;6.00;;;1.70;;
45644;SDS011;31359;48.784;9.192;2022-07-05T12:35:06;4.03;;;1.52;;
45644;SDS011;31359;48.784;9.192;2022-07-05T12:40:28;4.70;;;1.80;;
45644;SDS011;31359;48.784;9.192;2022-07-05T12:45:30;1.70;;;1.35;;
45644;SDS011;31359;48.784;9.192;2022-07-05T12:56:13;4.60;;;1.70;;
45644;SDS011;31359;48.784;9.192;2022-07-05T13:01:42;5.25;;;1.42;;
45644;SDS011;31359;48.784;9.192;2022-07-05T13:11:50;2.88;;;1.73;;
45644;SDS011;31359;48.784;9.192;2022-07-05T13:16:52;4.78;;;1.63;;
45644;SDS011;31359;48.784;9.192;2022-07-05T13:21:54;3.35;;;1.80;;
45644;SDS011;31359;48.784;9.192;2022-07-05T13:26:56;6.53;;;1.70;;
45644;SDS011;31359;48.784;9.192;2022-07-05T13:31:58;2.58;;;1.30;;
45644;SDS011;31359;48.784;9.192;2022-07-05T13:37:00;2.67;;;1.77;;
45644;SDS011;31359;48.784;9.192;2022-07-05T13:42:02;6.07;;;1.42;;
45644;SDS011;31359;48.784;9.192;2022-07-05T13:47:06;8.52;;;1.80;;
45644;SDS011;31359;48.784;9.192;2022-07-05T13:52:08;10.55;;;2.00;;
45644;SDS011;31359;48.784;9.192;2022-07-05T13:57:10;5.18;;;2.05;;
45644;SDS011;31359;48.784;9.192;2022-07-05T14:02:12;3.70;;;1.65;;
45644;SDS011;31359;48.784;9.192;2022-07-05T14:07:14;6.53;;;1.67;;
45644;SDS011;31359;48.784;9.192;2022-07-05T14:12:15;2.92;;;1.65;;
45644;SDS011;31359;48.784;9.192;2022-07-05T14:17:19;2.28;;;1.60;;
45644;SDS011;31359;48.784;9.192;2022-07-05T14:22:21;4.45;;;1.33;;
45644;SDS011;31359;48.784;9.192;2022-07-05T14:27:23;4.47;;;1.80;;
45644;SDS011;31359;48.784;9.192;2022-07-05T14:32:29;3.88;;;1.80;;
45644;SDS011;31359;48.784;9.192;2022-07-05T14:37:30;7.47;;;1.58;;
45644;SDS011;31359;48.784;9.192;2022-07-05T14:42:32;7.03;;;1.60;;
45644;SDS011;31359;48.784;9.192;2022-07-05T14:47:34;5.65;;;1.70;;
45644;SDS011;31359;48.784;9.192;2022-07-05T14:52:35;3.30;;;1.55;;
45644;SDS011;31359;48.784;9.192;2022-07-05T14:57:37;4.57;;;1.60;;
45644;SDS011;31359;48.784;9.192;2022-07-05T15:02:40;6.95;;;2.10;;
45644;SDS011;31359;48.784;9.192;2022-07-05T15:07:43;3.50;;;1.73;;
45644;SDS011;31359;48.784;9.192;2022-07-05T15:12:46;6.25;;;1.83;;
45644;SDS011;31359;48.784;9.192;2022-07-05T15:17:48;6.53;;;1.70;;
45644;SDS011;31359;48.784;9.192;2022-07-05T15:22:50;9.93;;;1.95;;
45644;SDS011;31359;48.784;9.192;2022-07-05T15:27:52;12.23;;;2.00;;
45644;SDS011;31359;48.784;9.192;2022-07-05T15:32:53;6.47;;;1.70;;
45644;SDS011;31359;48.784;9.192;2022-07-05T15:38:00;5.28;;;1.83;;
45644;SDS011;31359;48.784;9.192;2022-07-05T15:43:02;7.47;;;2.00;;
45644;SDS011;31359;48.784;9.192;2022-07-05T15:48:04;8.20;;;1.88;;
45644;SDS011;31359;48.784;9.192;2022-07-05T15:53:06;4.50;;;1.77;;
45644;SDS011;31359;48.784;9.192;2022-07-05T15:58:08;6.00;;;1.42;;
45644;SDS011;31359;48.784;9.192;2022-07-05T16:03:09;7.53;;;2.13;;
45644;SDS011;31359;48.784;9.192;2022-07-05T16:08:11;6.13;;;1.88;;
45644;SDS011;31359;48.784;9.192;2022-07-05T16:13:15;5.70;;;1.80;;
45644;SDS011;31359;48.784;9.192;2022-07-05T16:18:17;5.22;;;1.30;;
45644;SDS011;31359;48.784;9.192;2022-07-05T16:23:20;4.03;;;1.88;;
45644;SDS011;31359;48.784;9.192;2022-07-05T16:28:23;4.45;;;1.70;;
45644;SDS011;31359;48.784;9.192;2022-07-05T16:33:25;4.55;;;1.70;;
45644;SDS011;31359;48.784;9.192;2022-07-05T16:38:27;5.07;;;1.40;;
45644;SDS011;31359;48.784;9.192;2022-07-05T16:43:32;3.10;;;1.33;;
45644;SDS011;31359;48.784;9.192;2022-07-05T16:48:35;4.00;;;1.73;;
45644;SDS011;31359;48.784;9.192;2022-07-05T16:53:40;7.50;;;1.70;;
45644;SDS011;31359;48.784;9.192;2022-07-05T16:58:43;4.15;;;1.70;;
45644;SDS011;31359;48.784;9.192;2022-07-05T17:03:50;7.97;;;1.83;;
45644;SDS011;31359;48.784;9.192;2022-07-05T17:08:53;7.15;;;1.70;;
45644;SDS011;31359;48.784;9.192;2022-07-05T17:13:55;9.68;;;1.67;;
45644;SDS011;31359;48.784;9.192;2022-07-05T17:18:57;10.30;;;1.95;;
45644;SDS011;31359;48.784;9.192;2022-07-05T17:23:59;8.80;;;1.92;;
45644;SDS011;31359;48.784;9.192;2022-07-05T17:29:01;5.97;;;1.92;;
45644;SDS011;31359;48.784;9.192;2022-07-05T17:34:04;10.48;;;2.05;;
45644;SDS011;31359;48.784;9.192;2022-07-05T17:39:06;6.35;;;1.70;;
45644;SDS011;31359;48.784;9.192;2022-07-05T17:44:07;4.45;;;1.60;;
45644;SDS011;31359;48.784;9.192;2022-07-05T17:49:09;6.78;;;1.83;;
45644;SDS011;31359;48.784;9.192;2022-07-05T17:54:11;6.18;;;1.85;;
45644;SDS011;31359;48.784;9.192;2022-07-05T17:59:14;7.80;;;1.70;;
45644;SDS011;31359;48.784;9.192;2022-07-05T18:04:16;6.30;;;2.10;;
45644;SDS011;31359;48.784;9.192;2022-07-05T18:09:18;7.60;;;2.03;;
45644;SDS011;31359;48.784;9.192;2022-07-05T18:14:20;10.25;;;2.20;;
45644;SDS011;31359;48.784;9.192;2022-07-05T18:19:21;8.82;;;2.20;;
45644;SDS011;31359;48.784;9.192;2022-07-05T18:24:23;5.72;;;2.10;;
45644;SDS011;31359;48.784;9.192;2022-07-05T18:29:26;4.25;;;2.45;;
45644;SDS011;31359;48.784;9.192;2022-07-05T18:34:28;5.10;;;1.98;;
45644;SDS011;31359;48.784;9.192;2022-07-05T18:39:29;4.32;;;1.90;;
45644;SDS011;31359;48.784;9.192;2022-07-05T18:44:31;5.20;;;1.90;;
45644;SDS011;31359;48.784;9.192;2022-07-05T18:49:33;5.00;;;1.70;;
45644;SDS011;31359;48.784;9.192;2022-07-05T18:54:35;4.45;;;1.75;;
45644;SDS011;31359;48.784;9.192;2022-07-05T18:59:37;5.45;;;1.70;;
45644;SDS011;31359;48.784;9.192;2022-07-05T19:04:39;4.85;;;2.00;;
45644;SDS011;31359;48.784;9.192;2022-07-05T19:09:41;5.45;;;1.65;;
45644;SDS011;31359;48.784;9.192;2022-07-05T19:15:01;4.22;;;1.70;;
45644;SDS011;31359;48.784;9.192;2022-07-05T19:20:04;3.25;;;1.52;;
45644;SDS011;31359;48.784;9.192;2022-07-05T19:25:06;3.08;;;1.70;;
45644;SDS011;31359;48.784;9.192;2022-07-05T19:30:08;7.05;;;1.90;;
45644;SDS011;31359;48.784;9.192;2022-07-05T19:35:10;2.40;;;1.48;;
45644;SDS011;31359;48.784;9.192;2022-07-05T19:40:12;2.70;;;1.52;;
45644;SDS011;31359;48.784;9.192;2022-07-05T19:45:14;2.63;;;1.20;;
45644;SDS011;31359;48.784;9.192;2022-07-05T19:50:21;3.05;;;1.70;;
45644;SDS011;31359;48.784;9.192;2022-07-05T19:55:23;3.80;;;1.73;;
45644;SDS011;31359;48.784;9.192;2022-07-05T20:00:25;2.03;;;1.50;;
45644;SDS011;31359;48.784;9.192;2022-07-05T20:05:27;3.95;;;2.00;;
45644;SDS011;31359;48.784;9.192;2022-07-05T20:10:29;3.97;;;2.20;;
45644;SDS011;31359;48.784;9.192;2022-07-05T20:15:31;2.30;;;1.88;;
45644;SDS011;31359;48.784;9.192;2022-07-05T20:20:32;5.78;;;1.60;;
45644;SDS011;31359;48.784;9.192;2022-07-05T20:25:34;4.60;;;2.00;;
45644;SDS011;31359;48.784;9.192;2022-07-05T20:30:36;5.85;;;2.28;;
45644;SDS011;31359;48.784;9.192;2022-07-05T20:35:38;7.68;;;2.70;;
45644;SDS011;31359;48.784;9.192;2022-07-05T20:40:41;8.88;;;2.67;;
45644;SDS011;31359;48.784;9.192;2022-07-05T20:45:43;4.78;;;2.42;;
45644;SDS011;31359;48.784;9.192;2022-07-05T20:50:44;12.73;;;3.33;;
45644;SDS011;31359;48.784;9.192;2022-07-05T20:55:46;8.20;;;2.80;;
45644;SDS011;31359;48.784;9.192;2022-07-05T21:00:49;8.40;;;2.47;;
45644;SDS011;31359;48.784;9.192;2022-07-05T21:06:10;6.78;;;2.50;;
45644;SDS011;31359;48.784;9.192;2022-07-05T21:11:12;6.78;;;3.03;;
45644;SDS011;31359;48.784;9.192;2022-07-05T21:16:13;7.63;;;2.83;;
45644;SDS011;31359;48.784;9.192;2022-07-05T21:21:15;5.78;;;2.50;;
45644;SDS011;31359;48.784;9.192;2022-07-05T21:26:17;5.90;;;3.00;;
45644;SDS011;31359;48.784;9.192;2022-07-05T21:31:19;7.45;;;2.85;;
45644;SDS011;31359;48.784;9.192;2022-07-05T21:36:20;6.88;;;3.03;;
45644;SDS011;31359;48.784;9.192;2022-07-05T21:41:22;7.65;;;2.85;;
45644;SDS011;31359;48.784;9.192;2022-07-05T21:46:24;8.90;;;2.80;;
45644;SDS011;31359;48.784;9.192;2022-07-05T21:51:26;11.20;;;4.85;;
45644;SDS011;31359;48.784;9.192;2022-07-05T21:56:27;16.33;;;6.07;;
45644;SDS011;31359;48.784;9.192;2022-07-05T22:01:29;18.60;;;6.38;;
45644;SDS011;31359;48.784;9.192;2022-07-05T22:06:50;16.75;;;6.18;;
45644;SDS011;31359;48.784;9.192;2022-07-05T22:11:53;17.20;;;7.05;;
45644;SDS011;31359;48.784;9.192;2022-07-05T22:16:55;14.73;;;6.88;;
45644;SDS011;31359;48.784;9.192;2022-07-05T22:21:57;16.73;;;6.35;;
45644;SDS011;31359;48.784;9.192;2022-07-05T22:26:59;17.77;;;6.18;;
45644;SDS011;31359;48.784;9.192;2022-07-05T22:32:01;16.58;;;6.25;;
45644;SDS011;31359;48.784;9.192;2022-07-05T22:37:03;14.93;;;6.10;;
45644;SDS011;31359;48.784;9.192;2022-07-05T22:42:05;17.75;;;6.75;;
45644;SDS011;31359;48.784;9.192;2022-07-05T22:47:08;23.70;;;8.05;;
45644;SDS011;31359;48.784;9.192;2022-07-05T22:52:10;23.02;;;8.65;;
45644;SDS011;31359;48.784;9.192;2022-07-05T22:57:11;20.10;;;7.97;;
45644;SDS011;31359;48.784;9.192;2022-07-05T23:02:13;20.00;;;7.63;;
45644;SDS011;31359;48.784;9.192;2022-07-05T23:07:15;19.25;;;8.18;;
45644;SDS011;31359;48.784;9.192;2022-07-05T23:12:17;17.15;;;7.25;;
45644;SDS011;31359;48.784;9.192;2022-07-05T23:17:18;19.20;;;7.03;;
45644;SDS011;31359;48.784;9.192;2022-07-05T23:22:20;18.17;;;7.70;;
45644;SDS011;31359;48.784;9.192;2022-07-05T23:27:25;15.95;;;7.18;;
45644;SDS011;31359;48.784;9.192;2022-07-05T23:32:28;17.08;;;7.03;;
45644;SDS011;31359;48.784;9.192;2022-07-05T23:37:30;14.25;;;6.78;;
45644;SDS011;31359;48.784;9.192;2022-07-05T23:42:32;14.30;;;6.10;;
45644;SDS011;31359;48.784;9.192;2022-07-05T23:47:34;15.48;;;6.53;;
45644;SDS011;31359;48.784;9.192;2022-07-05T23:52:36;13.85;;;6.05;;
45644;SDS011;31359;48.784;9.192;2022-07-05T23:57:37;14.98;;;6.25;;
